Airfield :
LOGIN :

Register | Disclaimer

   EN    FR    IT 

 










Legend :    VFR   Marginal VFR   IFR   Intensive IFR   Very Intensive IFR
Visi :
Ceiling :
>= 8 km
>= 3000ft
5 to 8 km
1000 to 3000 ft
1500m to 5 km
500 to 1000 ft
800 to 1500m
200 to 500 ft
< 800m
< 200 ft
Symbols :   Thunderstorms  Fog  Heavy snow  Heavy precipitations  Wind > 20 kt
SIGMETs :     Misc.  Thunderstorms  Icing  Turbulence  Mountain Waves  Volcanic Ashes







- Airport Elevation : 461 ft
- IATA code : WIE


ETOU - Wiesbaden Army

CURRENT METAR :
  • 190156Z AUTO 00000KT 9999 OVC032 11/08 A3020 RMK AO2 SLP228 T01080078 $

EXPIRED METARs :
  • 190056Z AUTO 00000KT 9999 FEW043 10/07 A3020 RMK AO2 SLP228 T00990066 $
  • 182356Z AUTO 33003KT 9999 FEW042 12/08 A3020 RMK AO2 SLP227 T01230076 10157 20123 57004 $

TAF TAF ETOU
Valid from the 18 at 19:00 until the 20 at 01:00 UTC


181907Z 1819/2001 VRB06KT 9999 SCT030 QNH3016INS
BECMG 1903/1904 VRB06KT 9999 BKN015 QNH3019INS
BECMG 1909/1910 VRB06KT 9999 BKN020 QNH3021INS TX20/1914Z TN10/1905Z
No reported NOTAMs for that airfield.



MET'MAP, your aeronautical weather chart ! - Copyright ORBIFLY December 2007 - Disclaimer

ORBIFLY MET'MAP TEAM :

Programming & Development : Alexandra Zaïnal
Concept & Development : Baudouin d'Aumeries
Co-Development & Prog : Marc-Olivier Méhu
Technical & hardware support : Manuel Goepfert

Contact : metmap@orbifly.com




SOURCES & CREDITS :

   NOAA